sensor_id;sensor_type;location;lat;lon;timestamp;pressure;altitude;pressure_sealevel;temperature;humidity
18900;BME280;9582;52.018;6.306;2023-03-25T00:01:06;101358.16;;;8.63;100.00
18900;BME280;9582;52.018;6.306;2023-03-25T00:03:35;101349.50;;;8.61;100.00
18900;BME280;9582;52.018;6.306;2023-03-25T00:06:05;101345.19;;;8.60;100.00
18900;BME280;9582;52.018;6.306;2023-03-25T00:08:32;101354.81;;;8.58;100.00
18900;BME280;9582;52.018;6.306;2023-03-25T00:10:59;101342.63;;;8.58;100.00
18900;BME280;9582;52.018;6.306;2023-03-25T00:13:27;101344.41;;;8.58;100.00
18900;BME280;9582;52.018;6.306;2023-03-25T00:15:56;101347.88;;;8.57;100.00
18900;BME280;9582;52.018;6.306;2023-03-25T00:18:24;101332.28;;;8.55;100.00
18900;BME280;9582;52.018;6.306;2023-03-25T00:20:55;101337.53;;;8.54;100.00
18900;BME280;9582;52.018;6.306;2023-03-25T00:23:22;101330.59;;;8.54;100.00
18900;BME280;9582;52.018;6.306;2023-03-25T00:25:48;101333.19;;;8.54;100.00
18900;BME280;9582;52.018;6.306;2023-03-25T00:28:17;101327.13;;;8.54;100.00
18900;BME280;9582;52.018;6.306;2023-03-25T00:30:44;101337.47;;;8.57;100.00
18900;BME280;9582;52.018;6.306;2023-03-25T00:33:10;101325.31;;;8.56;100.00
18900;BME280;9582;52.018;6.306;2023-03-25T00:35:38;101333.13;;;8.56;100.00
18900;BME280;9582;52.018;6.306;2023-03-25T00:38:10;101335.66;;;8.59;100.00
18900;BME280;9582;52.018;6.306;2023-03-25T00:40:37;101334.78;;;8.58;100.00
18900;BME280;9582;52.018;6.306;2023-03-25T00:43:04;101344.41;;;8.58;100.00
18900;BME280;9582;52.018;6.306;2023-03-25T00:45:32;101342.66;;;8.57;100.00
18900;BME280;9582;52.018;6.306;2023-03-25T00:47:59;101336.56;;;8.58;100.00
18900;BME280;9582;52.018;6.306;2023-03-25T00:50:25;101335.66;;;8.59;100.00
18900;BME280;9582;52.018;6.306;2023-03-25T00:52:52;101331.25;;;8.61;100.00
18900;BME280;9582;52.018;6.306;2023-03-25T00:55:20;101316.53;;;8.60;100.00
18900;BME280;9582;52.018;6.306;2023-03-25T00:57:47;101329.47;;;8.63;100.00
18900;BME280;9582;52.018;6.306;2023-03-25T01:00:16;101320.78;;;8.62;100.00
18900;BME280;9582;52.018;6.306;2023-03-25T01:02:43;101316.44;;;8.63;100.00
18900;BME280;9582;52.018;6.306;2023-03-25T01:05:10;101315.50;;;8.64;100.00
18900;BME280;9582;52.018;6.306;2023-03-25T01:07:38;101313.78;;;8.64;100.00
18900;BME280;9582;52.018;6.306;2023-03-25T01:10:07;101321.50;;;8.67;100.00
18900;BME280;9582;52.018;6.306;2023-03-25T01:12:35;101313.66;;;8.69;100.00
18900;BME280;9582;52.018;6.306;2023-03-25T01:15:02;101311.06;;;8.69;100.00
18900;BME280;9582;52.018;6.306;2023-03-25T01:17:29;101300.63;;;8.69;100.00
18900;BME280;9582;52.018;6.306;2023-03-25T01:19:55;101312.75;;;8.70;100.00
18900;BME280;9582;52.018;6.306;2023-03-25T01:22:22;101304.91;;;8.70;100.00
18900;BME280;9582;52.018;6.306;2023-03-25T01:24:48;101314.38;;;8.74;100.00
18900;BME280;9582;52.018;6.306;2023-03-25T01:27:15;101303.13;;;8.72;100.00
18900;BME280;9582;52.018;6.306;2023-03-25T01:29:43;101298.81;;;8.71;100.00
18900;BME280;9582;52.018;6.306;2023-03-25T01:32:09;101292.66;;;8.74;100.00
18900;BME280;9582;52.018;6.306;2023-03-25T01:34:36;101281.38;;;8.73;100.00
18900;BME280;9582;52.018;6.306;2023-03-25T01:37:04;101277.91;;;8.73;100.00
18900;BME280;9582;52.018;6.306;2023-03-25T01:39:30;101277.91;;;8.73;100.00
18900;BME280;9582;52.018;6.306;2023-03-25T01:41:57;101270.84;;;8.76;100.00
18900;BME280;9582;52.018;6.306;2023-03-25T01:47:29;101265.53;;;8.79;100.00
18900;BME280;9582;52.018;6.306;2023-03-25T01:49:55;101252.56;;;8.78;100.00
18900;BME280;9582;52.018;6.306;2023-03-25T01:52:24;101230.84;;;8.77;100.00
18900;BME280;9582;52.018;6.306;2023-03-25T01:54:54;101233.47;;;8.76;100.00
18900;BME280;9582;52.018;6.306;2023-03-25T01:57:22;101222.19;;;8.75;100.00
18900;BME280;9582;52.018;6.306;2023-03-25T01:59:50;101217.84;;;8.76;100.00
18900;BME280;9582;52.018;6.306;2023-03-25T02:02:19;101205.72;;;8.75;100.00
18900;BME280;9582;52.018;6.306;2023-03-25T02:04:54;101208.19;;;8.79;100.00
18900;BME280;9582;52.018;6.306;2023-03-25T02:07:24;101211.69;;;8.78;100.00
18900;BME280;9582;52.018;6.306;2023-03-25T02:09:56;101195.94;;;8.81;100.00
18900;BME280;9582;52.018;6.306;2023-03-25T02:12:24;101190.72;;;8.81;100.00
18900;BME280;9582;52.018;6.306;2023-03-25T02:14:51;101195.16;;;8.79;100.00
18900;BME280;9582;52.018;6.306;2023-03-25T02:17:22;101192.59;;;8.78;100.00
18900;BME280;9582;52.018;6.306;2023-03-25T02:20:23;101177.03;;;8.75;100.00
18900;BME280;9582;52.018;6.306;2023-03-25T02:26:11;101175.44;;;8.70;100.00
18900;BME280;9582;52.018;6.306;2023-03-25T02:28:49;101167.66;;;8.69;100.00
18900;BME280;9582;52.018;6.306;2023-03-25T02:31:41;101166.81;;;8.68;100.00
18900;BME280;9582;52.018;6.306;2023-03-25T02:34:32;101168.66;;;8.65;100.00
18900;BME280;9582;52.018;6.306;2023-03-25T02:37:21;101167.75;;;8.66;100.00
18900;BME280;9582;52.018;6.306;2023-03-25T02:39:55;101164.31;;;8.64;100.00
18900;BME280;9582;52.018;6.306;2023-03-25T02:42:30;101161.81;;;8.61;100.00
18900;BME280;9582;52.018;6.306;2023-03-25T02:45:01;101158.50;;;8.56;100.00
18900;BME280;9582;52.018;6.306;2023-03-25T02:47:34;101169.97;;;8.50;100.00
18900;BME280;9582;52.018;6.306;2023-03-25T02:50:04;101165.84;;;8.43;100.00
18900;BME280;9582;52.018;6.306;2023-03-25T02:52:35;101171.88;;;8.45;100.00
18900;BME280;9582;52.018;6.306;2023-03-25T02:55:09;101164.13;;;8.44;100.00
18900;BME280;9582;52.018;6.306;2023-03-25T02:57:38;101167.59;;;8.43;100.00
18900;BME280;9582;52.018;6.306;2023-03-25T03:00:09;101159.81;;;8.41;100.00
18900;BME280;9582;52.018;6.306;2023-03-25T03:02:41;101159.00;;;8.41;100.00
18900;BME280;9582;52.018;6.306;2023-03-25T03:05:21;101172.91;;;8.40;100.00
18900;BME280;9582;52.018;6.306;2023-03-25T03:07:52;101156.50;;;8.36;100.00
18900;BME280;9582;52.018;6.306;2023-03-25T03:10:24;101153.91;;;8.36;100.00
18900;BME280;9582;52.018;6.306;2023-03-25T03:13:00;101158.31;;;8.34;100.00
18900;BME280;9582;52.018;6.306;2023-03-25T03:15:36;101160.91;;;8.34;100.00
18900;BME280;9582;52.018;6.306;2023-03-25T03:18:14;101171.38;;;8.33;100.00
18900;BME280;9582;52.018;6.306;2023-03-25T03:20:53;101166.16;;;8.33;100.00
18900;BME280;9582;52.018;6.306;2023-03-25T03:23:24;101174.91;;;8.32;100.00
18900;BME280;9582;52.018;6.306;2023-03-25T03:25:59;101164.56;;;8.29;100.00
18900;BME280;9582;52.018;6.306;2023-03-25T03:28:34;101161.91;;;8.30;100.00
18900;BME280;9582;52.018;6.306;2023-03-25T03:31:10;101170.53;;;8.32;100.00
18900;BME280;9582;52.018;6.306;2023-03-25T03:33:45;101170.53;;;8.32;100.00
18900;BME280;9582;52.018;6.306;2023-03-25T03:36:16;101174.09;;;8.30;100.00
18900;BME280;9582;52.018;6.306;2023-03-25T03:38:47;101168.97;;;8.25;100.00
18900;BME280;9582;52.018;6.306;2023-03-25T03:41:19;101185.59;;;8.21;100.00
18900;BME280;9582;52.018;6.306;2023-03-25T03:43:50;101174.50;;;8.14;100.00
18900;BME280;9582;52.018;6.306;2023-03-25T03:46:22;101185.88;;;8.10;100.00
18900;BME280;9582;52.018;6.306;2023-03-25T03:48:51;101183.50;;;8.03;100.00
18900;BME280;9582;52.018;6.306;2023-03-25T03:51:22;101194.78;;;8.03;100.00
18900;BME280;9582;52.018;6.306;2023-03-25T03:53:57;101200.09;;;8.00;100.00
18900;BME280;9582;52.018;6.306;2023-03-25T03:56:29;101208.78;;;7.99;100.00
18900;BME280;9582;52.018;6.306;2023-03-25T03:59:03;101209.69;;;7.98;100.00
18900;BME280;9582;52.018;6.306;2023-03-25T04:01:35;101220.84;;;8.02;100.00
18900;BME280;9582;52.018;6.306;2023-03-25T04:04:12;101232.94;;;8.04;100.00
18900;BME280;9582;52.018;6.306;2023-03-25T04:06:42;101220.91;;;8.00;100.00
18900;BME280;9582;52.018;6.306;2023-03-25T04:09:15;101227.06;;;7.98;100.00
18900;BME280;9582;52.018;6.306;2023-03-25T04:11:55;101243.63;;;7.95;100.00
18900;BME280;9582;52.018;6.306;2023-03-25T04:14:24;101239.31;;;7.94;100.00
18900;BME280;9582;52.018;6.306;2023-03-25T04:16:51;101255.00;;;7.93;100.00
18900;BME280;9582;52.018;6.306;2023-03-25T04:19:17;101250.59;;;7.93;100.00
18900;BME280;9582;52.018;6.306;2023-03-25T04:21:44;101260.94;;;7.96;100.00
18900;BME280;9582;52.018;6.306;2023-03-25T04:24:13;101273.09;;;7.97;100.00
18900;BME280;9582;52.018;6.306;2023-03-25T04:26:44;101266.13;;;7.98;100.00
18900;BME280;9582;52.018;6.306;2023-03-25T04:29:13;101279.94;;;8.00;100.00
18900;BME280;9582;52.018;6.306;2023-03-25T04:31:40;101275.59;;;8.00;100.00
18900;BME280;9582;52.018;6.306;2023-03-25T04:34:11;101285.94;;;8.03;100.00
18900;BME280;9582;52.018;6.306;2023-03-25T04:36:39;101287.69;;;8.03;100.00
18900;BME280;9582;52.018;6.306;2023-03-25T04:39:07;101271.19;;;8.02;100.00
18900;BME280;9582;52.018;6.306;2023-03-25T04:41:34;101273.84;;;8.01;100.00
18900;BME280;9582;52.018;6.306;2023-03-25T04:44:01;101290.44;;;7.98;100.00
18900;BME280;9582;52.018;6.306;2023-03-25T04:46:28;101285.22;;;7.98;100.00
18900;BME280;9582;52.018;6.306;2023-03-25T04:48:55;101287.75;;;8.00;100.00
18900;BME280;9582;52.018;6.306;2023-03-25T04:51:22;101289.47;;;8.01;100.00
18900;BME280;9582;52.018;6.306;2023-03-25T04:53:49;101297.25;;;8.02;100.00
18900;BME280;9582;52.018;6.306;2023-03-25T04:56:16;101289.41;;;8.04;100.00
18900;BME280;9582;52.018;6.306;2023-03-25T04:58:44;101282.47;;;8.03;100.00
18900;BME280;9582;52.018;6.306;2023-03-25T05:01:19;101278.16;;;8.02;100.00
18900;BME280;9582;52.018;6.306;2023-03-25T05:03:49;101283.38;;;8.02;100.00
18900;BME280;9582;52.018;6.306;2023-03-25T05:06:16;101274.72;;;8.01;100.00
18900;BME280;9582;52.018;6.306;2023-03-25T05:08:42;101267.78;;;8.00;100.00
18900;BME280;9582;52.018;6.306;2023-03-25T05:11:09;101262.66;;;7.97;100.00
18900;BME280;9582;52.018;6.306;2023-03-25T05:13:35;101262.69;;;7.96;100.00
18900;BME280;9582;52.018;6.306;2023-03-25T05:16:02;101266.16;;;7.96;100.00
18900;BME280;9582;52.018;6.306;2023-03-25T05:18:29;101267.00;;;7.97;100.00
18900;BME280;9582;52.018;6.306;2023-03-25T05:20:56;101274.81;;;7.98;100.00
18900;BME280;9582;52.018;6.306;2023-03-25T05:23:25;101274.81;;;7.98;100.00
18900;BME280;9582;52.018;6.306;2023-03-25T05:25:51;101282.53;;;8.01;100.00
18900;BME280;9582;52.018;6.306;2023-03-25T05:28:18;101285.03;;;8.04;100.00
18900;BME280;9582;52.018;6.306;2023-03-25T05:30:46;101280.59;;;8.08;100.00
18900;BME280;9582;52.018;6.306;2023-03-25T05:33:14;101283.19;;;8.09;100.00
18900;BME280;9582;52.018;6.306;2023-03-25T05:35:42;101272.75;;;8.09;100.00
18900;BME280;9582;52.018;6.306;2023-03-25T05:38:10;101277.88;;;8.12;100.00
18900;BME280;9582;52.018;6.306;2023-03-25T05:40:38;101267.38;;;8.16;100.00
18900;BME280;9582;52.018;6.306;2023-03-25T05:43:05;101268.19;;;8.18;100.00
18900;BME280;9582;52.018;6.306;2023-03-25T05:45:32;101249.00;;;8.20;100.00
18900;BME280;9582;52.018;6.306;2023-03-25T05:48:00;101262.84;;;8.22;100.00
18900;BME280;9582;52.018;6.306;2023-03-25T05:50:26;101259.34;;;8.23;100.00
18900;BME280;9582;52.018;6.306;2023-03-25T05:52:53;101265.41;;;8.24;100.00
18900;BME280;9582;52.018;6.306;2023-03-25T05:55:21;101251.47;;;8.25;100.00
18900;BME280;9582;52.018;6.306;2023-03-25T05:57:48;101254.03;;;8.28;100.00
18900;BME280;9582;52.018;6.306;2023-03-25T06:00:16;101254.88;;;8.28;100.00
18900;BME280;9582;52.018;6.306;2023-03-25T06:02:46;101242.72;;;8.29;100.00
18900;BME280;9582;52.018;6.306;2023-03-25T06:05:14;101236.66;;;8.28;100.00
18900;BME280;9582;52.018;6.306;2023-03-25T06:07:43;101238.41;;;8.28;100.00
18900;BME280;9582;52.018;6.306;2023-03-25T06:10:12;101237.53;;;8.27;100.00
18900;BME280;9582;52.018;6.306;2023-03-25T06:12:42;101240.13;;;8.27;100.00
18900;BME280;9582;52.018;6.306;2023-03-25T06:15:10;101247.06;;;8.28;100.00
18900;BME280;9582;52.018;6.306;2023-03-25T06:17:38;101247.06;;;8.28;100.00
18900;BME280;9582;52.018;6.306;2023-03-25T06:20:06;101238.41;;;8.26;100.00
18900;BME280;9582;52.018;6.306;2023-03-25T06:22:37;101244.56;;;8.24;100.00
18900;BME280;9582;52.018;6.306;2023-03-25T06:25:04;101232.44;;;8.23;100.00
18900;BME280;9582;52.018;6.306;2023-03-25T06:27:31;101227.22;;;8.23;100.00
18900;BME280;9582;52.018;6.306;2023-03-25T06:30:00;101234.16;;;8.24;100.00
18900;BME280;9582;52.018;6.306;2023-03-25T06:32:27;101232.44;;;8.23;100.00
18900;BME280;9582;52.018;6.306;2023-03-25T06:34:53;101235.84;;;8.25;100.00
18900;BME280;9582;52.018;6.306;2023-03-25T06:37:20;101239.38;;;8.24;100.00
18900;BME280;9582;52.018;6.306;2023-03-25T06:39:50;101240.19;;;8.24;100.00
18900;BME280;9582;52.018;6.306;2023-03-25T06:42:21;101244.44;;;8.30;100.00
18900;BME280;9582;52.018;6.306;2023-03-25T06:45:08;101238.28;;;8.32;100.00
18900;BME280;9582;52.018;6.306;2023-03-25T06:47:58;101245.97;;;8.37;100.00
18900;BME280;9582;52.018;6.306;2023-03-25T06:50:25;101247.75;;;8.35;100.00
18900;BME280;9582;52.018;6.306;2023-03-25T06:52:52;101252.06;;;8.36;100.00
18900;BME280;9582;52.018;6.306;2023-03-25T06:55:19;101240.66;;;8.40;100.00
18900;BME280;9582;52.018;6.306;2023-03-25T06:57:45;101241.25;;;8.49;100.00
18900;BME280;9582;52.018;6.306;2023-03-25T07:00:14;101252.41;;;8.53;100.00
18900;BME280;9582;52.018;6.306;2023-03-25T07:02:44;101246.25;;;8.55;100.00
18900;BME280;9582;52.018;6.306;2023-03-25T07:05:11;101238.41;;;8.57;100.00
18900;BME280;9582;52.018;6.306;2023-03-25T07:07:37;101239.22;;;8.59;100.00
18900;BME280;9582;52.018;6.306;2023-03-25T07:10:04;101235.81;;;8.57;100.00
18900;BME280;9582;52.018;6.306;2023-03-25T07:12:32;101228.78;;;8.59;100.00
18900;BME280;9582;52.018;6.306;2023-03-25T07:14:59;101230.50;;;8.60;100.00
18900;BME280;9582;52.018;6.306;2023-03-25T07:17:28;101223.56;;;8.59;100.00
18900;BME280;9582;52.018;6.306;2023-03-25T07:19:55;101227.09;;;8.58;100.00
18900;BME280;9582;52.018;6.306;2023-03-25T07:22:21;101222.69;;;8.60;100.00
18900;BME280;9582;52.018;6.306;2023-03-25T07:24:48;101216.47;;;8.64;100.00
18900;BME280;9582;52.018;6.306;2023-03-25T07:27:16;101205.91;;;8.68;100.00
18900;BME280;9582;52.018;6.306;2023-03-25T07:29:52;101197.75;;;8.79;100.00
18900;BME280;9582;52.018;6.306;2023-03-25T07:32:18;101196.75;;;8.83;100.00
18900;BME280;9582;52.018;6.306;2023-03-25T07:34:46;101191.28;;;8.91;100.00
18900;BME280;9582;52.018;6.306;2023-03-25T07:37:12;101185.63;;;9.04;100.00
18900;BME280;9582;52.018;6.306;2023-03-25T07:39:39;101180.38;;;9.06;100.00
18900;BME280;9582;52.018;6.306;2023-03-25T07:42:06;101170.16;;;9.00;100.00
18900;BME280;9582;52.018;6.306;2023-03-25T07:44:51;101160.84;;;8.91;100.00
18900;BME280;9582;52.018;6.306;2023-03-25T07:47:17;101165.16;;;8.92;100.00
18900;BME280;9582;52.018;6.306;2023-03-25T07:49:45;101158.19;;;8.93;100.00
18900;BME280;9582;52.018;6.306;2023-03-25T07:52:14;101158.25;;;8.91;100.00
18900;BME280;9582;52.018;6.306;2023-03-25T07:54:40;101156.88;;;8.80;100.00
18900;BME280;9582;52.018;6.306;2023-03-25T07:57:07;101141.53;;;8.70;100.00
18900;BME280;9582;52.018;6.306;2023-03-25T07:59:33;101156.50;;;8.64;100.00
18900;BME280;9582;52.018;6.306;2023-03-25T08:02:00;101156.50;;;8.64;100.00
18900;BME280;9582;52.018;6.306;2023-03-25T08:04:26;101162.56;;;8.64;100.00
18900;BME280;9582;52.018;6.306;2023-03-25T08:06:54;101161.72;;;8.64;100.00
18900;BME280;9582;52.018;6.306;2023-03-25T08:09:21;101181.59;;;8.68;100.00
18900;BME280;9582;52.018;6.306;2023-03-25T08:11:48;101184.81;;;8.76;100.00
18900;BME280;9582;52.018;6.306;2023-03-25T08:14:15;101191.69;;;8.79;100.00
18900;BME280;9582;52.018;6.306;2023-03-25T08:16:42;101191.75;;;8.77;100.00
18900;BME280;9582;52.018;6.306;2023-03-25T08:19:08;101199.56;;;8.77;100.00
18900;BME280;9582;52.018;6.306;2023-03-25T08:21:35;101194.34;;;8.77;100.00
18900;BME280;9582;52.018;6.306;2023-03-25T08:24:03;101211.75;;;8.77;100.00
18900;BME280;9582;52.018;6.306;2023-03-25T08:26:31;101202.19;;;8.76;100.00
18900;BME280;9582;52.018;6.306;2023-03-25T08:28:58;101208.25;;;8.78;100.00
18900;BME280;9582;52.018;6.306;2023-03-25T08:31:28;101210.88;;;8.76;100.00
18900;BME280;9582;52.018;6.306;2023-03-25T08:33:55;101210.09;;;8.74;100.00
18900;BME280;9582;52.018;6.306;2023-03-25T08:36:21;101229.31;;;8.70;100.00
18900;BME280;9582;52.018;6.306;2023-03-25T08:38:48;101229.59;;;8.61;100.00
18900;BME280;9582;52.018;6.306;2023-03-25T08:41:17;101233.38;;;8.51;100.00
18900;BME280;9582;52.018;6.306;2023-03-25T08:43:43;101231.88;;;8.44;100.00
18900;BME280;9582;52.018;6.306;2023-03-25T08:46:10;101252.50;;;8.50;100.00
18900;BME280;9582;52.018;6.306;2023-03-25T08:48:36;101266.00;;;8.64;100.00
18900;BME280;9582;52.018;6.306;2023-03-25T08:51:03;101280.56;;;8.71;100.00
18900;BME280;9582;52.018;6.306;2023-03-25T08:53:31;101287.97;;;8.85;100.00
18900;BME280;9582;52.018;6.306;2023-03-25T08:55:57;101299.16;;;8.88;100.00
18900;BME280;9582;52.018;6.306;2023-03-25T08:58:26;101308.47;;;8.97;100.00
18900;BME280;9582;52.018;6.306;2023-03-25T09:00:54;101322.31;;;8.99;100.00
18900;BME280;9582;52.018;6.306;2023-03-25T09:03:21;101323.09;;;9.02;100.00
18900;BME280;9582;52.018;6.306;2023-03-25T09:05:48;101316.03;;;9.06;100.00
18900;BME280;9582;52.018;6.306;2023-03-25T09:08:14;101317.59;;;9.11;100.00
18900;BME280;9582;52.018;6.306;2023-03-25T09:10:41;101302.75;;;9.12;100.00
18900;BME280;9582;52.018;6.306;2023-03-25T09:13:08;101318.28;;;9.16;100.00
18900;BME280;9582;52.018;6.306;2023-03-25T09:15:36;101325.72;;;9.28;100.00
18900;BME280;9582;52.018;6.306;2023-03-25T09:18:02;101327.34;;;9.33;100.00
18900;BME280;9582;52.018;6.306;2023-03-25T09:20:29;101316.88;;;9.34;100.00
18900;BME280;9582;52.018;6.306;2023-03-25T09:22:56;101318.28;;;9.44;100.00
18900;BME280;9582;52.018;6.306;2023-03-25T09:25:23;101324.19;;;9.49;100.00
18900;BME280;9582;52.018;6.306;2023-03-25T09:27:49;101326.03;;;9.46;100.00
18900;BME280;9582;52.018;6.306;2023-03-25T09:30:16;101316.66;;;9.40;100.00
18900;BME280;9582;52.018;6.306;2023-03-25T09:32:44;101318.63;;;9.34;100.00
18900;BME280;9582;52.018;6.306;2023-03-25T09:35:11;101316.31;;;9.24;100.00
18900;BME280;9582;52.018;6.306;2023-03-25T09:37:37;101314.66;;;9.20;100.00
18900;BME280;9582;52.018;6.306;2023-03-25T09:40:05;101314.56;;;9.23;100.00
18900;BME280;9582;52.018;6.306;2023-03-25T09:42:44;101325.88;;;9.24;100.00
18900;BME280;9582;52.018;6.306;2023-03-25T09:45:21;101325.97;;;9.21;100.00
18900;BME280;9582;52.018;6.306;2023-03-25T09:47:56;101326.75;;;9.24;100.00
18900;BME280;9582;52.018;6.306;2023-03-25T09:50:25;101330.94;;;9.28;100.00
18900;BME280;9582;52.018;6.306;2023-03-25T09:52:56;101328.44;;;9.25;100.00
18900;BME280;9582;52.018;6.306;2023-03-25T09:55:27;101342.28;;;9.27;100.00
18900;BME280;9582;52.018;6.306;2023-03-25T09:57:59;101346.56;;;9.30;100.00
18900;BME280;9582;52.018;6.306;2023-03-25T10:00:27;101324.06;;;9.26;100.00
18900;BME280;9582;52.018;6.306;2023-03-25T10:03:03;101326.75;;;9.24;100.00
18900;BME280;9582;52.018;6.306;2023-03-25T10:05:43;101318.56;;;9.35;100.00
18900;BME280;9582;52.018;6.306;2023-03-25T10:08:20;101316.84;;;9.62;100.00
18900;BME280;9582;52.018;6.306;2023-03-25T10:10:51;101330.09;;;9.82;100.00
18900;BME280;9582;52.018;6.306;2023-03-25T10:13:27;101327.53;;;10.05;100.00
18900;BME280;9582;52.018;6.306;2023-03-25T10:16:03;101337.41;;;10.22;100.00
18900;BME280;9582;52.018;6.306;2023-03-25T10:18:41;101325.63;;;10.10;100.00
18900;BME280;9582;52.018;6.306;2023-03-25T10:21:15;101320.63;;;10.04;100.00
18900;BME280;9582;52.018;6.306;2023-03-25T10:23:48;101307.03;;;10.19;100.00
18900;BME280;9582;52.018;6.306;2023-03-25T10:26:23;101307.06;;;10.42;100.00
18900;BME280;9582;52.018;6.306;2023-03-25T10:28:52;101318.66;;;10.82;100.00
18900;BME280;9582;52.018;6.306;2023-03-25T10:31:23;101294.56;;;10.74;100.00
18900;BME280;9582;52.018;6.306;2023-03-25T10:33:52;101294.78;;;10.91;100.00
18900;BME280;9582;52.018;6.306;2023-03-25T10:36:27;101279.44;;;11.03;100.00
18900;BME280;9582;52.018;6.306;2023-03-25T10:38:56;101279.16;;;11.11;100.00
18900;BME280;9582;52.018;6.306;2023-03-25T10:41:29;101270.63;;;11.28;100.00
18900;BME280;9582;52.018;6.306;2023-03-25T10:43:56;101276.69;;;11.50;100.00
18900;BME280;9582;52.018;6.306;2023-03-25T10:46:27;101256.06;;;11.42;100.00
18900;BME280;9582;52.018;6.306;2023-03-25T10:48:57;101252.19;;;11.31;100.00
18900;BME280;9582;52.018;6.306;2023-03-25T10:51:26;101240.34;;;11.42;100.00
18900;BME280;9582;52.018;6.306;2023-03-25T10:53:54;101251.81;;;11.60;100.00
18900;BME280;9582;52.018;6.306;2023-03-25T10:56:21;101242.91;;;11.64;100.00
18900;BME280;9582;52.018;6.306;2023-03-25T10:58:51;101216.44;;;11.30;100.00
18900;BME280;9582;52.018;6.306;2023-03-25T11:01:20;101199.16;;;11.04;100.00
18900;BME280;9582;52.018;6.306;2023-03-25T11:03:49;101176.19;;;10.69;100.00
18900;BME280;9582;52.018;6.306;2023-03-25T11:06:21;101179.75;;;10.44;100.00
18900;BME280;9582;52.018;6.306;2023-03-25T11:08:56;101188.13;;;10.31;100.00
18900;BME280;9582;52.018;6.306;2023-03-25T11:11:30;101206.41;;;10.31;100.00
18900;BME280;9582;52.018;6.306;2023-03-25T11:13:57;101208.06;;;10.33;100.00
18900;BME280;9582;52.018;6.306;2023-03-25T11:16:24;101204.72;;;10.05;100.00
18900;BME280;9582;52.018;6.306;2023-03-25T11:18:52;101200.94;;;9.66;100.00
18900;BME280;9582;52.018;6.306;2023-03-25T11:21:20;101195.91;;;9.35;100.00
18900;BME280;9582;52.018;6.306;2023-03-25T11:23:48;101190.03;;;9.28;100.00
18900;BME280;9582;52.018;6.306;2023-03-25T11:26:18;101191.75;;;9.29;100.00
18900;BME280;9582;52.018;6.306;2023-03-25T11:28:48;101205.38;;;9.38;100.00
18900;BME280;9582;52.018;6.306;2023-03-25T11:31:16;101221.63;;;9.46;100.00
18900;BME280;9582;52.018;6.306;2023-03-25T11:33:44;101224.97;;;9.51;100.00
18900;BME280;9582;52.018;6.306;2023-03-25T11:36:22;101235.91;;;9.62;100.00
18900;BME280;9582;52.018;6.306;2023-03-25T11:38:54;101242.59;;;9.69;100.00
18900;BME280;9582;52.018;6.306;2023-03-25T11:41:22;101257.25;;;9.73;100.00
18900;BME280;9582;52.018;6.306;2023-03-25T11:43:49;101271.00;;;9.78;100.00
18900;BME280;9582;52.018;6.306;2023-03-25T11:46:17;101271.69;;;9.83;100.00
18900;BME280;9582;52.018;6.306;2023-03-25T11:48:46;101282.03;;;9.86;100.00
18900;BME280;9582;52.018;6.306;2023-03-25T11:51:18;101288.13;;;9.86;100.00
18900;BME280;9582;52.018;6.306;2023-03-25T11:53:49;101277.97;;;9.79;100.00
18900;BME280;9582;52.018;6.306;2023-03-25T11:56:22;101280.47;;;9.82;100.00
18900;BME280;9582;52.018;6.306;2023-03-25T11:58:49;101298.16;;;9.99;100.00
18900;BME280;9582;52.018;6.306;2023-03-25T12:01:23;101306.38;;;10.37;100.00
18900;BME280;9582;52.018;6.306;2023-03-25T12:03:51;101298.03;;;10.51;100.00
18900;BME280;9582;52.018;6.306;2023-03-25T12:06:19;101320.66;;;10.52;100.00
18900;BME280;9582;52.018;6.306;2023-03-25T12:08:52;101290.59;;;10.40;100.00
18900;BME280;9582;52.018;6.306;2023-03-25T12:11:25;101295.19;;;10.34;100.00
18900;BME280;9582;52.018;6.306;2023-03-25T12:14:13;101293.50;;;10.33;100.00
18900;BME280;9582;52.018;6.306;2023-03-25T12:16:47;101271.59;;;10.35;100.00
18900;BME280;9582;52.018;6.306;2023-03-25T12:19:22;101264.84;;;10.30;100.00
18900;BME280;9582;52.018;6.306;2023-03-25T12:22:02;101259.50;;;10.33;100.00
18900;BME280;9582;52.018;6.306;2023-03-25T12:24:43;101265.44;;;10.83;100.00
18900;BME280;9582;52.018;6.306;2023-03-25T12:27:27;101239.81;;;11.13;100.00
18900;BME280;9582;52.018;6.306;2023-03-25T12:30:02;101233.06;;;11.29;100.00
18900;BME280;9582;52.018;6.306;2023-03-25T12:32:40;101194.31;;;11.37;100.00
18900;BME280;9582;52.018;6.306;2023-03-25T12:35:21;101194.69;;;11.28;100.00
18900;BME280;9582;52.018;6.306;2023-03-25T12:38:13;101161.56;;;11.27;100.00
18900;BME280;9582;52.018;6.306;2023-03-25T12:40:58;101151.31;;;11.42;100.00
18900;BME280;9582;52.018;6.306;2023-03-25T12:43:37;101131.38;;;11.40;100.00
18900;BME280;9582;52.018;6.306;2023-03-25T12:46:20;101123.13;;;11.29;100.00
18900;BME280;9582;52.018;6.306;2023-03-25T12:49:03;101082.47;;;11.20;100.00
18900;BME280;9582;52.018;6.306;2023-03-25T12:51:42;101083.59;;;11.15;100.00
18900;BME280;9582;52.018;6.306;2023-03-25T12:54:24;101068.94;;;11.11;100.00
18900;BME280;9582;52.018;6.306;2023-03-25T12:57:00;101077.94;;;11.03;100.00
18900;BME280;9582;52.018;6.306;2023-03-25T12:59:46;101074.81;;;10.95;100.00
18900;BME280;9582;52.018;6.306;2023-03-25T13:02:34;101084.50;;;10.93;100.00
18900;BME280;9582;52.018;6.306;2023-03-25T13:05:13;101086.84;;;11.20;100.00
18900;BME280;9582;52.018;6.306;2023-03-25T13:07:44;101101.50;;;11.03;100.00
18900;BME280;9582;52.018;6.306;2023-03-25T13:10:14;101087.09;;;10.52;100.00
18900;BME280;9582;52.018;6.306;2023-03-25T13:12:46;101078.53;;;10.03;100.00
18900;BME280;9582;52.018;6.306;2023-03-25T13:15:17;101117.94;;;9.51;100.00
18900;BME280;9582;52.018;6.306;2023-03-25T13:17:48;101144.19;;;8.95;100.00
18900;BME280;9582;52.018;6.306;2023-03-25T13:20:17;101151.38;;;8.61;100.00